createdAt,value
2023-01-05T00:02:01.720Z,44.17
2023-01-05T00:04:29.634Z,40.67
2023-01-05T00:06:57.679Z,32.70
2023-01-05T00:09:25.725Z,34.75
2023-01-05T00:12:12.229Z,40.22
2023-01-05T00:14:58.721Z,31.77
2023-01-05T00:17:45.737Z,35.90
2023-01-05T00:20:37.448Z,38.20
2023-01-05T00:23:06.531Z,35.53
2023-01-05T00:28:05.837Z,22.92
2023-01-05T00:30:41.428Z,27.05
2023-01-05T00:33:15.518Z,22.85
2023-01-05T00:35:43.777Z,27.98
2023-01-05T00:38:11.674Z,35.85
2023-01-05T00:40:39.750Z,37.85
2023-01-05T00:43:07.662Z,39.85
2023-01-05T00:45:35.792Z,55.40
2023-01-05T00:48:03.861Z,43.83
2023-01-05T00:50:31.915Z,40.78
2023-01-05T00:53:02.966Z,48.30
2023-01-05T00:55:30.910Z,61.65
2023-01-05T00:57:58.840Z,53.45
2023-01-05T01:00:26.905Z,39.55
2023-01-05T01:05:23.725Z,32.60
2023-01-05T01:07:52.867Z,41.90
2023-01-05T01:15:16.219Z,36.38
2023-01-05T01:17:44.395Z,29.77
2023-01-05T01:20:12.674Z,28.80
2023-01-05T01:22:40.538Z,33.28
2023-01-05T01:25:09.075Z,29.40
2023-01-05T01:27:37.138Z,36.35
2023-01-05T01:30:05.703Z,37.88
2023-01-05T01:32:33.614Z,37.92
2023-01-05T01:35:02.365Z,32.90
2023-01-05T01:37:30.743Z,35.33
2023-01-05T01:39:59.069Z,34.72
2023-01-05T01:42:27.522Z,32.75
2023-01-05T01:45:01.494Z,32.75
2023-01-05T01:47:41.993Z,31.65
2023-01-05T01:50:20.479Z,28.95
2023-01-05T01:52:51.483Z,28.83
2023-01-05T01:55:20.841Z,28.10
2023-01-05T01:57:50.903Z,26.17
2023-01-05T02:00:21.686Z,30.50
2023-01-05T02:02:55.108Z,71.78
2023-01-05T02:05:33.676Z,45.40
2023-01-05T02:08:01.592Z,35.47
2023-01-05T02:10:54.366Z,36.60
2023-01-05T02:13:32.206Z,35.65
2023-01-05T02:16:29.521Z,37.80
2023-01-05T02:19:06.115Z,35.72
2023-01-05T02:22:01.734Z,37.88
2023-01-05T02:24:48.233Z,36.13
2023-01-05T02:27:43.661Z,36.15
2023-01-05T02:30:29.639Z,39.03
2023-01-05T02:33:27.527Z,41.28
2023-01-05T02:36:29.098Z,43.42
2023-01-05T02:39:14.458Z,48.85
2023-01-05T02:42:12.327Z,39.72
2023-01-05T02:44:41.766Z,48.15
2023-01-05T02:47:30.328Z,46.65
2023-01-05T02:50:22.398Z,45.47
2023-01-05T02:53:08.050Z,45.40
2023-01-05T02:55:52.546Z,41.17
2023-01-05T02:59:54.563Z,37.28
2023-01-05T03:02:29.589Z,37.53
2023-01-05T03:05:10.821Z,31.25
2023-01-05T03:07:43.054Z,34.17
2023-01-05T03:10:34.062Z,37.40
2023-01-05T03:13:25.546Z,35.33
2023-01-05T03:16:02.245Z,35.70
2023-01-05T03:18:33.192Z,35.05
2023-01-05T03:21:02.022Z,33.78
2023-01-05T03:23:49.905Z,31.73
2023-01-05T03:26:37.233Z,37.72
2023-01-05T03:32:19.574Z,29.63
2023-01-05T03:35:13.914Z,27.17
2023-01-05T03:37:57.139Z,35.50
2023-01-05T03:40:31.059Z,51.67
2023-01-05T03:43:00.371Z,31.60
2023-01-05T03:45:46.044Z,34.20
2023-01-05T03:48:23.047Z,28.98
2023-01-05T03:50:51.380Z,32.80
2023-01-05T03:53:21.080Z,39.97
2023-01-05T03:58:17.871Z,29.70
2023-01-05T04:00:49.032Z,37.15
2023-01-05T04:03:20.444Z,35.97
2023-01-05T04:05:49.816Z,43.00
2023-01-05T04:08:18.613Z,39.58
2023-01-05T04:10:46.618Z,37.85
2023-01-05T04:13:15.268Z,50.28
2023-01-05T04:15:44.766Z,39.47
2023-01-05T04:18:14.234Z,39.83
2023-01-05T04:20:42.243Z,38.35
2023-01-05T04:23:10.126Z,39.28
2023-01-05T04:25:38.491Z,45.05
2023-01-05T04:28:20.701Z,42.80
2023-01-05T04:30:55.344Z,43.08
2023-01-05T04:33:26.151Z,37.50
2023-01-05T04:35:55.495Z,32.42
2023-01-05T04:38:27.402Z,33.90
2023-01-05T04:40:56.583Z,28.65
2023-01-05T04:43:26.600Z,36.72
2023-01-05T04:45:56.181Z,33.03
2023-01-05T04:48:25.955Z,41.45
2023-01-05T04:50:55.743Z,36.70
2023-01-05T04:56:00.367Z,33.97
2023-01-05T04:58:33.499Z,35.38
2023-01-05T05:01:01.557Z,41.22
2023-01-05T05:03:33.340Z,43.17
2023-01-05T05:06:02.895Z,46.65
2023-01-05T05:08:32.525Z,47.65
2023-01-05T05:11:02.235Z,38.83
2023-01-05T05:13:32.434Z,36.13
2023-01-05T05:16:02.301Z,38.50
2023-01-05T05:18:31.893Z,50.25
2023-01-05T05:20:59.892Z,45.90
2023-01-05T05:23:32.399Z,37.35
2023-01-05T05:26:01.093Z,37.35
2023-01-05T05:28:29.766Z,42.33
2023-01-05T05:30:58.185Z,31.95
2023-01-05T05:33:26.690Z,25.80
2023-01-05T05:35:54.788Z,23.52
2023-01-05T05:38:22.788Z,29.92
2023-01-05T05:40:50.667Z,33.35
2023-01-05T05:43:18.906Z,36.88
2023-01-05T05:45:50.583Z,33.15
2023-01-05T05:48:19.668Z,45.03
2023-01-05T05:50:47.666Z,49.55
2023-01-05T05:53:15.703Z,43.22
2023-01-05T05:55:43.873Z,48.10
2023-01-05T05:58:11.889Z,45.35
2023-01-05T06:00:40.029Z,45.40
2023-01-05T06:03:08.078Z,52.00
2023-01-05T06:05:36.258Z,52.13
2023-01-05T06:08:04.698Z,46.95
2023-01-05T06:10:32.647Z,46.33
2023-01-05T06:13:00.695Z,77.05
2023-01-05T06:15:28.631Z,68.55
2023-01-05T06:17:56.494Z,69.47
2023-01-05T06:20:24.523Z,55.00
2023-01-05T06:22:52.483Z,57.00
2023-01-05T06:25:20.304Z,59.72
2023-01-05T06:27:48.589Z,61.90
2023-01-05T06:30:16.718Z,69.93
2023-01-05T06:32:44.729Z,58.70
2023-01-05T06:35:13.427Z,56.50
2023-01-05T06:37:41.351Z,103.20
2023-01-05T06:40:11.682Z,93.30
2023-01-05T06:42:40.083Z,73.20
2023-01-05T06:45:08.889Z,54.63
2023-01-05T06:47:36.704Z,57.03
2023-01-05T06:50:04.912Z,44.53
2023-01-05T06:52:36.918Z,53.97
2023-01-05T06:55:05.715Z,152.98
2023-01-05T06:57:33.726Z,102.22
2023-01-05T07:00:01.688Z,97.03
2023-01-05T07:02:29.683Z,50.75
2023-01-05T07:04:57.689Z,48.53
2023-01-05T07:07:25.759Z,36.22
2023-01-05T07:09:53.954Z,43.83
2023-01-05T07:12:21.966Z,43.25
2023-01-05T07:14:54.349Z,52.08
2023-01-05T07:17:26.139Z,44.75
2023-01-05T07:24:49.987Z,46.58
2023-01-05T07:27:17.943Z,45.70
2023-01-05T07:29:45.980Z,31.77
2023-01-05T07:32:13.971Z,36.80
2023-01-05T07:34:41.822Z,41.72
2023-01-05T07:37:13.078Z,29.05
2023-01-05T07:39:40.935Z,27.63
2023-01-05T07:42:08.854Z,28.42
2023-01-05T07:47:06.152Z,21.60
2023-01-05T07:49:34.304Z,24.30
2023-01-05T07:52:02.251Z,55.00
2023-01-05T07:54:30.274Z,40.60
2023-01-05T07:56:58.371Z,38.45
2023-01-05T07:59:26.433Z,30.05
2023-01-05T08:01:54.727Z,20.05
2023-01-05T08:04:22.851Z,16.45
2023-01-05T08:06:52.736Z,19.15
2023-01-05T08:09:39.378Z,18.45
2023-01-05T08:12:07.572Z,15.90
2023-01-05T08:14:35.652Z,14.75
2023-01-05T08:17:03.723Z,32.20
2023-01-05T08:19:31.640Z,24.92
2023-01-05T08:21:59.971Z,21.98
2023-01-05T08:24:27.801Z,21.58
2023-01-05T08:26:55.926Z,27.30
2023-01-05T08:29:23.950Z,16.65
2023-01-05T08:31:52.020Z,16.90
2023-01-05T08:34:19.960Z,32.17
2023-01-05T08:36:47.972Z,19.50
2023-01-05T08:39:16.212Z,15.75
2023-01-05T08:41:44.403Z,27.30
2023-01-05T08:44:14.489Z,23.15
2023-01-05T08:46:42.504Z,23.13
2023-01-05T08:49:11.043Z,20.08
2023-01-05T08:51:39.488Z,15.55
2023-01-05T08:54:07.417Z,17.08
2023-01-05T08:56:39.004Z,16.48
2023-01-05T08:59:07.962Z,16.88
2023-01-05T09:01:37.197Z,17.35
2023-01-05T09:04:05.517Z,19.95
2023-01-05T09:06:33.544Z,15.65
2023-01-05T09:09:01.820Z,17.08
2023-01-05T09:11:29.752Z,21.52
2023-01-05T09:14:00.360Z,22.17
2023-01-05T09:19:19.181Z,16.33
2023-01-05T09:21:47.242Z,28.20
2023-01-05T09:24:15.417Z,31.73
2023-01-05T09:26:43.683Z,21.73
2023-01-05T09:29:12.840Z,16.60
2023-01-05T09:31:42.094Z,19.67
2023-01-05T09:34:10.776Z,16.90
2023-01-05T09:39:10.316Z,20.83
2023-01-05T09:41:51.713Z,19.88
2023-01-05T09:44:32.306Z,18.65
2023-01-05T09:47:23.436Z,19.92
2023-01-05T09:49:51.801Z,19.58
2023-01-05T09:52:22.346Z,24.52
2023-01-05T09:54:50.664Z,15.35
2023-01-05T09:57:25.646Z,13.20
2023-01-05T10:00:00.845Z,14.25
2023-01-05T10:02:34.592Z,20.40
2023-01-05T10:05:05.119Z,14.77
2023-01-05T10:07:44.615Z,33.60
2023-01-05T10:10:30.059Z,20.83
2023-01-05T10:13:05.673Z,25.98
2023-01-05T10:15:48.349Z,25.38
2023-01-05T10:18:21.363Z,22.30
2023-01-05T10:21:37.284Z,28.65
2023-01-05T10:24:21.746Z,15.63
2023-01-05T10:27:23.582Z,30.55
2023-01-05T10:29:45.742Z,22.35
2023-01-05T10:32:26.265Z,19.05
2023-01-05T10:35:50.498Z,15.23
2023-01-05T10:38:42.467Z,16.13
2023-01-05T10:41:41.583Z,15.38
2023-01-05T10:44:15.303Z,20.58
2023-01-05T10:46:52.344Z,18.13
2023-01-05T10:49:26.419Z,15.80
2023-01-05T10:51:57.465Z,13.35
2023-01-05T10:54:41.428Z,15.25
2023-01-05T10:57:36.541Z,15.68
2023-01-05T11:00:11.034Z,14.05
2023-01-05T11:02:43.333Z,15.10
2023-01-05T11:05:11.313Z,17.27
2023-01-05T11:07:54.156Z,35.45
2023-01-05T11:10:33.164Z,35.00
2023-01-05T11:13:21.565Z,42.00
2023-01-05T11:16:13.178Z,23.30
2023-01-05T11:18:49.201Z,13.98
2023-01-05T11:21:20.745Z,16.38
2023-01-05T11:24:01.099Z,15.52
2023-01-05T11:26:36.841Z,30.02
2023-01-05T11:29:11.557Z,23.85
2023-01-05T11:32:10.075Z,21.80
2023-01-05T11:34:46.995Z,20.10
2023-01-05T11:37:25.674Z,24.20
2023-01-05T11:39:59.781Z,20.65
2023-01-05T11:42:27.740Z,17.73
2023-01-05T11:45:03.026Z,19.65
2023-01-05T11:47:43.840Z,29.25
2023-01-05T11:50:18.725Z,19.38
2023-01-05T11:52:54.210Z,19.25
2023-01-05T11:55:31.708Z,17.23
2023-01-05T11:58:15.768Z,16.63
2023-01-05T12:01:13.006Z,20.50
2023-01-05T12:03:54.172Z,18.88
2023-01-05T12:06:30.302Z,18.55
2023-01-05T12:09:13.499Z,16.05
2023-01-05T12:12:00.131Z,18.63
2023-01-05T12:14:44.233Z,15.70
2023-01-05T12:17:17.226Z,19.77
2023-01-05T12:20:09.505Z,17.27
2023-01-05T12:23:13.422Z,18.15
2023-01-05T12:25:56.700Z,16.58
2023-01-05T12:30:24.604Z,18.63
2023-01-05T12:35:40.769Z,23.60
2023-01-05T12:38:20.220Z,21.05
2023-01-05T12:40:50.808Z,14.63
2023-01-05T12:43:35.830Z,24.38
2023-01-05T12:46:23.644Z,19.17
2023-01-05T12:48:58.466Z,29.15
2023-01-05T12:51:34.774Z,26.10
2023-01-05T12:54:30.459Z,22.05
2023-01-05T12:57:04.466Z,16.38
2023-01-05T12:59:55.114Z,15.25
2023-01-05T13:02:36.245Z,14.20
2023-01-05T13:05:19.382Z,17.42
2023-01-05T13:07:57.063Z,18.48
2023-01-05T13:10:45.767Z,17.40
2023-01-05T13:13:20.190Z,21.15
2023-01-05T13:16:04.890Z,21.92
2023-01-05T13:18:37.267Z,21.98
2023-01-05T13:21:11.152Z,26.40
2023-01-05T13:23:51.694Z,40.20
2023-01-05T13:26:22.510Z,31.10
2023-01-05T13:28:55.969Z,26.58
2023-01-05T13:31:50.880Z,24.98
2023-01-05T13:34:19.147Z,38.85
2023-01-05T13:36:46.947Z,71.97
2023-01-05T13:39:36.621Z,61.70
2023-01-05T13:42:25.845Z,73.47
2023-01-05T13:45:07.400Z,61.03
2023-01-05T13:48:07.224Z,41.38
2023-01-05T13:50:44.828Z,31.63
2023-01-05T13:53:25.981Z,46.83
2023-01-05T13:58:41.786Z,79.35
2023-01-05T14:01:16.014Z,63.05
2023-01-05T14:03:54.387Z,59.05
2023-01-05T14:06:26.231Z,52.13
2023-01-05T14:09:06.262Z,211.07
2023-01-05T14:11:36.528Z,71.55
2023-01-05T14:14:27.722Z,69.30
2023-01-05T14:16:56.428Z,40.22
2023-01-05T14:22:22.950Z,47.47
2023-01-05T14:24:52.376Z,115.20
2023-01-05T14:27:23.958Z,67.63
2023-01-05T14:32:34.766Z,172.68
2023-01-05T14:35:27.747Z,186.98
2023-01-05T14:38:01.086Z,153.15
2023-01-05T14:40:37.500Z,120.38
2023-01-05T14:43:27.112Z,105.72
2023-01-05T14:46:10.017Z,56.33
2023-01-05T14:48:42.631Z,59.45
2023-01-05T14:51:13.942Z,189.60
2023-01-05T14:53:45.437Z,172.77
2023-01-05T14:56:15.864Z,167.95
2023-01-05T14:58:43.873Z,112.50
2023-01-05T15:01:17.615Z,80.85
2023-01-05T15:04:05.823Z,105.38
2023-01-05T15:06:52.000Z,143.48
2023-01-05T15:09:38.743Z,152.15
2023-01-05T15:12:19.704Z,129.63
2023-01-05T15:15:09.454Z,74.20
2023-01-05T15:18:03.924Z,57.42
2023-01-05T15:21:06.240Z,81.30
2023-01-05T15:24:19.800Z,102.75
2023-01-05T15:27:03.086Z,96.70
2023-01-05T15:30:17.558Z,80.57
2023-01-05T15:32:50.369Z,52.60
2023-01-05T15:35:30.302Z,34.20
2023-01-05T15:38:20.997Z,78.18
2023-01-05T15:40:52.042Z,78.07
2023-01-05T15:43:21.551Z,62.97
2023-01-05T15:45:53.823Z,79.97
2023-01-05T15:48:33.711Z,70.45
2023-01-05T15:51:02.538Z,84.07
2023-01-05T15:53:52.874Z,63.60
2023-01-05T15:56:36.897Z,58.05
2023-01-05T15:59:26.201Z,47.17
2023-01-05T16:01:55.780Z,114.13
2023-01-05T16:04:24.751Z,96.20
2023-01-05T16:07:02.220Z,58.47
2023-01-05T16:09:34.499Z,38.75
2023-01-05T16:12:27.113Z,37.10
2023-01-05T16:15:05.571Z,102.40
2023-01-05T16:17:37.783Z,163.65
2023-01-05T16:20:27.403Z,150.68
2023-01-05T16:23:04.593Z,146.43
2023-01-05T16:25:42.195Z,157.35
2023-01-05T16:28:17.874Z,133.18
2023-01-05T16:30:48.232Z,70.53
2023-01-05T16:33:39.619Z,55.42
2023-01-05T16:36:22.562Z,165.80
2023-01-05T16:38:51.067Z,104.93
2023-01-05T16:41:29.576Z,107.10
2023-01-05T16:44:02.893Z,78.18
2023-01-05T16:46:37.746Z,58.72
2023-01-05T16:49:33.346Z,54.58
2023-01-05T16:52:03.424Z,106.65
2023-01-05T16:54:41.178Z,108.93
2023-01-05T16:57:35.060Z,82.53
2023-01-05T17:00:06.212Z,33.70
2023-01-05T17:02:45.832Z,34.00
2023-01-05T17:05:22.867Z,20.80
2023-01-05T17:08:05.776Z,31.67
2023-01-05T17:10:34.517Z,55.03
2023-01-05T17:13:07.187Z,34.58
2023-01-05T17:15:36.636Z,33.60
2023-01-05T17:18:34.735Z,27.25
2023-01-05T17:21:05.310Z,31.83
2023-01-05T17:23:40.478Z,29.50
2023-01-05T17:26:11.725Z,69.53
2023-01-05T17:28:42.231Z,83.47
2023-01-05T17:33:40.257Z,41.45
2023-01-05T17:36:08.996Z,103.72
2023-01-05T17:38:37.861Z,75.07
2023-01-05T17:41:07.134Z,71.90
2023-01-05T17:46:03.977Z,45.47
2023-01-05T17:48:32.516Z,23.48
2023-01-05T17:51:00.644Z,25.20
2023-01-05T17:53:28.931Z,35.80
2023-01-05T17:55:57.476Z,58.38
2023-01-05T17:58:27.239Z,61.38
2023-01-05T18:00:55.926Z,92.60
2023-01-05T18:03:24.412Z,40.63
2023-01-05T18:05:53.986Z,30.67
2023-01-05T18:08:23.014Z,33.17
2023-01-05T18:10:51.517Z,32.33
2023-01-05T18:13:22.556Z,26.85
2023-01-05T18:15:53.468Z,133.07
2023-01-05T18:18:22.372Z,110.50
2023-01-05T18:20:51.925Z,135.07
2023-01-05T18:23:21.245Z,118.25
2023-01-05T18:25:49.926Z,131.45
2023-01-05T18:28:18.664Z,89.97
2023-01-05T18:30:47.306Z,51.60
2023-01-05T18:33:15.893Z,96.07
2023-01-05T18:35:44.632Z,99.60
2023-01-05T18:38:13.111Z,116.30
2023-01-05T18:40:41.629Z,100.32
2023-01-05T18:43:10.307Z,86.43
2023-01-05T18:45:39.923Z,88.82
2023-01-05T18:48:09.216Z,86.95
2023-01-05T18:50:50.288Z,104.90
2023-01-05T18:53:20.692Z,85.63
2023-01-05T18:55:49.850Z,125.45
2023-01-05T19:00:47.185Z,133.82
2023-01-05T19:03:15.717Z,145.00
2023-01-05T19:05:45.089Z,91.53
2023-01-05T19:08:14.346Z,107.68
2023-01-05T19:10:43.091Z,118.20
2023-01-05T19:13:11.444Z,84.53
2023-01-05T19:15:40.066Z,126.97
2023-01-05T19:18:08.559Z,173.57
2023-01-05T19:20:37.049Z,39.65
2023-01-05T19:23:05.661Z,35.88
2023-01-05T19:25:34.618Z,98.00
2023-01-05T19:28:03.285Z,99.45
2023-01-05T19:30:31.917Z,92.95
2023-01-05T19:33:03.328Z,115.43
2023-01-05T19:35:31.918Z,120.00
2023-01-05T19:38:03.366Z,95.22
2023-01-05T19:40:31.791Z,99.13
2023-01-05T19:43:00.232Z,101.78
2023-01-05T19:45:28.572Z,89.00
2023-01-05T19:47:57.263Z,93.10
2023-01-05T19:50:26.026Z,91.13
2023-01-05T19:52:54.681Z,232.05
2023-01-05T19:55:23.075Z,136.57
2023-01-05T19:57:51.640Z,82.13
2023-01-05T20:00:20.211Z,137.73
2023-01-05T20:02:48.645Z,127.63
2023-01-05T20:05:17.811Z,112.45
2023-01-05T20:07:46.226Z,139.30
2023-01-05T20:10:14.924Z,154.38
2023-01-05T20:12:43.450Z,164.35
2023-01-05T20:15:13.506Z,138.77
2023-01-05T20:17:44.418Z,93.88
2023-01-05T20:20:14.011Z,101.22
2023-01-05T20:22:42.359Z,110.85
2023-01-05T20:25:11.234Z,126.20
2023-01-05T20:27:40.204Z,97.93
2023-01-05T20:30:09.221Z,80.20
2023-01-05T20:32:37.690Z,98.45
2023-01-05T20:35:06.335Z,104.70
2023-01-05T20:37:34.574Z,112.65
2023-01-05T20:40:04.886Z,106.97
2023-01-05T20:42:33.798Z,94.78
2023-01-05T20:45:04.162Z,108.40
2023-01-05T20:47:43.117Z,68.88
2023-01-05T20:50:16.411Z,101.63
2023-01-05T20:52:44.843Z,98.53
2023-01-05T20:55:13.503Z,137.85
2023-01-05T20:57:42.102Z,102.88
2023-01-05T21:00:12.836Z,139.20
2023-01-05T21:02:41.617Z,126.13
2023-01-05T21:05:12.150Z,123.00
2023-01-05T21:07:41.418Z,104.05
2023-01-05T21:10:09.998Z,59.33
2023-01-05T21:12:38.547Z,64.07
2023-01-05T21:15:08.261Z,87.22
2023-01-05T21:17:37.005Z,75.65
2023-01-05T21:20:06.743Z,84.13
2023-01-05T21:22:35.621Z,101.75
2023-01-05T21:25:03.766Z,93.82
2023-01-05T21:27:31.726Z,72.35
2023-01-05T21:29:59.709Z,71.75
2023-01-05T21:32:27.573Z,65.88
2023-01-05T21:34:55.832Z,59.78
2023-01-05T21:37:23.764Z,63.13
2023-01-05T21:39:51.861Z,67.90
2023-01-05T21:42:38.778Z,126.10
2023-01-05T21:45:08.766Z,154.27
2023-01-05T21:47:37.551Z,104.03
2023-01-05T21:50:07.572Z,107.50
2023-01-05T21:52:55.447Z,90.38
2023-01-05T21:55:42.113Z,94.60
2023-01-05T21:58:10.219Z,88.53
2023-01-05T22:00:38.346Z,95.45
2023-01-05T22:03:06.462Z,103.50
2023-01-05T22:05:34.455Z,103.95
2023-01-05T22:08:02.421Z,87.60
2023-01-05T22:10:30.400Z,91.53
2023-01-05T22:12:58.412Z,87.45
2023-01-05T22:15:26.363Z,58.13
2023-01-05T22:17:54.479Z,102.88
2023-01-05T22:20:22.431Z,98.38
2023-01-05T22:22:50.373Z,76.80
2023-01-05T22:25:18.352Z,85.05
2023-01-05T22:27:46.577Z,83.10
2023-01-05T22:30:14.569Z,87.55
2023-01-05T22:32:42.598Z,77.93
2023-01-05T22:35:10.611Z,84.15
2023-01-05T22:37:38.560Z,89.30
2023-01-05T22:40:07.694Z,82.97
2023-01-05T22:45:03.739Z,61.95
2023-01-05T22:47:31.678Z,64.20
2023-01-05T22:49:59.559Z,72.57
2023-01-05T22:52:27.782Z,51.33
2023-01-05T22:54:55.671Z,65.07
2023-01-05T22:57:23.624Z,53.63
2023-01-05T22:59:51.679Z,76.78
2023-01-05T23:02:19.557Z,74.57
2023-01-05T23:04:47.543Z,62.88
2023-01-05T23:07:17.596Z,53.88
2023-01-05T23:09:45.504Z,68.03
2023-01-05T23:12:13.345Z,47.42
2023-01-05T23:14:41.267Z,49.97
2023-01-05T23:17:12.460Z,60.03
2023-01-05T23:19:40.595Z,64.10
2023-01-05T23:22:10.809Z,51.50
2023-01-05T23:24:39.449Z,54.05
2023-01-05T23:27:07.466Z,58.03
2023-01-05T23:29:35.407Z,60.75
2023-01-05T23:32:04.551Z,60.10
2023-01-05T23:34:32.396Z,57.20
2023-01-05T23:37:00.379Z,53.80
2023-01-05T23:39:28.292Z,47.33
2023-01-05T23:41:56.409Z,47.42
2023-01-05T23:44:24.365Z,39.70
2023-01-05T23:46:52.469Z,45.22
2023-01-05T23:49:20.365Z,47.95
2023-01-05T23:51:48.368Z,52.20
2023-01-05T23:54:16.227Z,53.20
2023-01-05T23:56:44.182Z,48.42
2023-01-05T23:59:12.101Z,38.13
